Time;durP1;ratioP1;P1;durP2;ratioP2;P2;SDS_P1;SDS_P2;PMS_P1;PMS_P2;Temp;Humidity;BMP_temperature;BMP_pressure;BME280_temperature;BME280_humidity;BME280_pressure;Samples;Min_cycle;Max_cycle;Signal;HPM_P1;HPM_P2
2021/09/27 00:00:17;;;;;;;;;;;19.00;99.90;;;;;;5067877;28;19918;-69
2021/09/27 00:02:43;;;;;;;;;;;19.00;99.90;;;;;;5048618;28;19952;-70
2021/09/27 00:05:10;;;;;;;;;;;19.00;99.90;;;;;;5067794;28;19970;-71
2021/09/27 00:07:36;;;;;;;;;;;19.00;99.90;;;;;;5066002;28;20373;-71
2021/09/27 00:10:02;;;;;;;;;;;18.90;99.90;;;;;;5069057;28;20441;-69
2021/09/27 00:12:28;;;;;;;;;;;18.90;99.90;;;;;;5069163;28;20379;-71
2021/09/27 00:14:53;;;;;;;;;;;18.90;99.90;;;;;;5066659;28;19991;-69
2021/09/27 00:17:19;;;;;;;;;;;18.90;99.90;;;;;;5067025;28;19994;-71
2021/09/27 00:19:44;;;;;;;;;;;18.80;99.90;;;;;;5068068;28;19912;-70
2021/09/27 00:22:10;;;;;;;31.95;22.25;;;18.80;99.90;;;;;;5069243;28;20188;-71
2021/09/27 00:24:36;;;;;;;;;;;18.80;99.90;;;;;;5058400;28;19955;-70
2021/09/27 00:27:01;;;;;;;;;;;18.70;99.90;;;;;;5062078;28;20220;-70
2021/09/27 00:29:27;;;;;;;;;;;18.70;99.90;;;;;;5044661;28;19953;-70
2021/09/27 00:31:52;;;;;;;;;;;18.70;99.90;;;;;;5057374;28;19909;-70
2021/09/27 00:34:18;;;;;;;;;;;18.60;99.90;;;;;;5041105;28;20475;-69
2021/09/27 00:36:44;;;;;;;41.63;23.53;;;18.60;99.90;;;;;;5055168;28;20025;-69
2021/09/27 00:39:09;;;;;;;;;;;18.60;99.90;;;;;;5063020;28;20182;-69
2021/09/27 00:41:35;;;;;;;;;;;18.50;99.90;;;;;;5042294;28;20404;-70
2021/09/27 00:44:01;;;;;;;;;;;18.50;99.90;;;;;;5063728;28;20377;-69
2021/09/27 00:46:32;;;;;;;;;;;18.50;99.90;;;;;;5058525;28;19913;-69
2021/09/27 00:48:58;;;;;;;;;;;18.50;99.90;;;;;;5062806;28;20057;-69
2021/09/27 00:51:26;;;;;;;;;;;18.50;99.90;;;;;;5065733;28;19927;-69
2021/09/27 00:54:04;;;;;;;;;;;18.50;99.90;;;;;;5063230;28;19920;-69
2021/09/27 00:56:31;;;;;;;;;;;18.50;99.90;;;;;;5066658;28;19920;-69
2021/09/27 00:58:58;;;;;;;;;;;18.50;99.90;;;;;;5061323;28;19924;-69
2021/09/27 01:01:24;;;;;;;;;;;18.50;99.90;;;;;;5063118;28;19920;-69
2021/09/27 01:03:50;;;;;;;;;;;18.50;99.90;;;;;;5061529;28;19965;-70
2021/09/27 01:06:15;;;;;;;;;;;18.50;99.90;;;;;;5059034;28;19916;-69
2021/09/27 01:08:51;;;;;;;;;;;18.50;99.90;;;;;;5044113;28;19942;-71
2021/09/27 01:11:26;;;;;;;;;;;18.40;99.90;;;;;;5063725;28;19920;-69
2021/09/27 01:13:55;;;;;;;;;;;18.40;99.90;;;;;;5047928;28;20365;-69
2021/09/27 01:16:43;;;;;;;;;;;18.30;99.90;;;;;;5056266;28;19917;-69
2021/09/27 01:19:27;;;;;;;;;;;18.30;99.90;;;;;;5065675;28;20397;-70
2021/09/27 01:21:58;;;;;;;;;;;18.30;99.90;;;;;;5075573;28;19913;-69
2021/09/27 01:24:43;;;;;;;;;;;18.20;99.90;;;;;;5068817;28;19970;-70
2021/09/27 01:27:18;;;;;;;;;;;18.20;99.90;;;;;;5085639;28;19921;-69
2021/09/27 01:29:59;;;;;;;;;;;18.20;99.90;;;;;;5068474;28;19912;-70
2021/09/27 01:32:33;;;;;;;;;;;18.20;99.90;;;;;;5052113;28;20405;-69
2021/09/27 01:35:02;;;;;;;;;;;18.10;99.90;;;;;;5084501;28;20289;-69
2021/09/27 01:37:46;;;;;;;38.00;24.48;;;18.10;99.90;;;;;;5067154;28;20143;-69
2021/09/27 01:40:19;;;;;;;37.10;24.85;;;18.10;99.90;;;;;;5053672;28;20290;-70
2021/09/27 01:43:02;;;;;;;39.88;26.02;;;18.00;99.90;;;;;;5068214;28;21058;-70
2021/09/27 01:45:32;;;;;;;37.10;25.33;;;18.00;99.90;;;;;;5051632;28;20214;-69
2021/09/27 01:48:03;;;;;;;36.33;25.80;;;18.00;99.90;;;;;;5068799;28;20187;-70
2021/09/27 01:50:43;;;;;;;41.42;26.42;;;17.90;99.90;;;;;;5072766;28;20186;-69
2021/09/27 01:53:17;;;;;;;42.95;26.10;;;17.90;99.90;;;;;;5073482;28;20223;-71
2021/09/27 01:55:48;;;;;;;35.88;25.45;;;17.90;99.90;;;;;;5072216;28;20190;-70
2021/09/27 01:58:20;;;;;;;43.03;27.05;;;17.90;99.90;;;;;;5071071;28;20202;-70
2021/09/27 02:00:49;;;;;;;37.38;25.42;;;17.90;99.90;;;;;;5068744;28;20190;-71
2021/09/27 02:03:26;;;;;;;36.80;26.00;;;17.90;99.90;;;;;;5070163;28;20616;-69
2021/09/27 02:06:15;;;;;;;43.55;27.33;;;17.90;99.90;;;;;;5066192;28;20324;-70
2021/09/27 02:09:09;;;;;;;42.25;27.50;;;17.80;99.90;;;;;;5069521;28;20181;-69
2021/09/27 02:11:39;;;;;;;38.65;27.00;;;17.80;99.90;;;;;;5071332;28;20703;-70
2021/09/27 02:14:12;;;;;;;39.95;27.25;;;17.80;99.90;;;;;;5070585;28;20186;-70
2021/09/27 02:17:01;;;;;;;39.92;27.33;;;17.70;99.90;;;;;;5072589;28;20653;-71
2021/09/27 02:19:37;;;;;;;;;;;17.70;99.90;;;;;;5052889;28;20063;-70
2021/09/27 02:22:07;;;;;;;;;;;17.60;99.90;;;;;;5068324;28;19947;-69
2021/09/27 02:24:39;;;;;;;;;;;17.60;99.90;;;;;;5063930;28;19951;-69
2021/09/27 02:27:04;;;;;;;;;;;17.60;99.90;;;;;;5063148;28;19989;-69
2021/09/27 02:29:30;;;;;;;;;;;17.60;99.90;;;;;;5064764;28;20404;-68
2021/09/27 02:31:56;;;;;;;;;;;17.60;99.90;;;;;;5042812;28;19996;-69
2021/09/27 02:34:27;;;;;;;;;;;17.50;99.90;;;;;;5064533;28;20407;-69
2021/09/27 02:36:56;;;;;;;;;;;17.60;99.90;;;;;;5055876;28;19943;-69
2021/09/27 02:39:42;;;;;;;;;;;17.50;99.90;;;;;;5059749;28;19987;-69
2021/09/27 02:42:14;;;;;;;;;;;17.50;99.90;;;;;;5061955;28;19945;-69
2021/09/27 02:44:40;;;;;;;;;;;17.50;99.90;;;;;;5048503;28;19959;-69
2021/09/27 02:47:08;;;;;;;;;;;17.50;99.90;;;;;;5043463;28;20671;-69
2021/09/27 02:49:47;;;;;;;;;;;17.50;99.90;;;;;;5048377;28;19996;-68
2021/09/27 02:52:14;;;;;;;;;;;17.40;99.90;;;;;;5064766;28;20471;-69
2021/09/27 02:54:41;;;;;;;;;;;17.40;99.90;;;;;;5062367;28;19964;-69
2021/09/27 02:57:10;;;;;;;;;;;17.40;99.90;;;;;;5062837;28;20001;-69
2021/09/27 02:59:44;;;;;;;;;;;17.40;99.90;;;;;;5063675;28;20423;-68
2021/09/27 03:02:17;;;;;;;;;;;17.40;99.90;;;;;;5060683;28;19950;-70
2021/09/27 03:04:55;;;;;;;;;;;17.40;99.90;;;;;;5059821;28;20033;-70
2021/09/27 03:07:32;;;;;;;;;;;17.40;99.90;;;;;;5060658;28;19950;-69
2021/09/27 03:10:16;;;;;;;;;;;17.40;99.90;;;;;;5060166;28;19913;-69
2021/09/27 03:12:50;;;;;;;;;;;17.40;99.90;;;;;;5063527;28;19908;-69
2021/09/27 03:15:31;;;;;;;;;;;17.30;99.90;;;;;;5062075;28;19912;-69
2021/09/27 03:18:09;;;;;;;;;;;17.30;99.90;;;;;;5055849;28;20053;-69
2021/09/27 03:20:53;;;;;;;;;;;17.30;99.90;;;;;;5041073;28;19948;-70
2021/09/27 03:23:30;;;;;;;;;;;17.30;99.90;;;;;;5059437;28;19927;-70
2021/09/27 03:25:59;;;;;;;;;;;17.30;99.90;;;;;;5072369;28;19920;-70
2021/09/27 03:28:28;;;;;;;;;;;17.30;99.90;;;;;;5044269;28;19940;-70
2021/09/27 03:31:05;;;;;;;;;;;17.20;99.90;;;;;;5040727;28;20657;-70
2021/09/27 03:33:46;;;;;;;;;;;17.20;99.90;;;;;;5061472;28;19954;-70
2021/09/27 03:36:22;;;;;;;;;;;17.20;99.90;;;;;;5052630;28;19966;-70
2021/09/27 03:39:01;;;;;;;;;;;17.20;99.90;;;;;;5060343;28;19966;-70
2021/09/27 03:41:33;;;;;;;;;;;17.20;99.90;;;;;;5062638;28;20376;-71
2021/09/27 03:44:04;;;;;;;;;;;17.20;99.90;;;;;;5059540;28;19916;-69
2021/09/27 03:46:29;;;;;;;;;;;17.20;99.90;;;;;;5044320;28;21494;-72
2021/09/27 03:48:58;;;;;;;;;;;17.10;99.90;;;;;;5062520;28;19942;-71
2021/09/27 03:51:25;;;;;;;;;;;17.10;99.90;;;;;;5063885;28;19996;-71
2021/09/27 03:54:01;;;;;;;;;;;17.10;99.90;;;;;;5062680;28;20329;-70
2021/09/27 03:56:39;;;;;;;53.60;31.30;;;17.10;99.90;;;;;;5044882;28;20510;-70
2021/09/27 03:59:14;;;;;;;;;;;17.10;99.90;;;;;;5061661;28;20041;-70
2021/09/27 04:01:49;;;;;;;;;;;17.00;99.90;;;;;;5054212;28;19908;-70
2021/09/27 04:04:27;;;;;;;;;;;17.10;99.90;;;;;;5063589;28;19926;-69
2021/09/27 04:07:16;;;;;;;;;;;17.00;99.90;;;;;;5053385;28;19950;-69
2021/09/27 04:09:41;;;;;;;;;;;17.00;99.90;;;;;;5054938;28;19916;-69
2021/09/27 04:12:07;;;;;;;;;;;17.00;99.90;;;;;;5059826;28;19909;-69
2021/09/27 04:14:38;;;;;;;;;;;17.00;99.90;;;;;;5062875;28;20386;-69
2021/09/27 04:17:07;;;;;;;;;;;16.90;99.90;;;;;;5054873;28;19909;-70
2021/09/27 04:19:43;;;;;;;;;;;16.90;99.90;;;;;;5063684;28;19908;-70
2021/09/27 04:22:22;;;;;;;;;;;16.90;99.90;;;;;;5059581;28;20289;-69
2021/09/27 04:24:47;;;;;;;;;;;16.90;99.90;;;;;;5055896;28;19925;-68
2021/09/27 04:27:24;;;;;;;;;;;16.90;99.90;;;;;;5062332;28;19915;-69
2021/09/27 04:29:57;;;;;;;;;;;16.90;99.90;;;;;;5063254;28;19912;-69
2021/09/27 04:32:30;;;;;;;;;;;16.90;99.90;;;;;;5058859;28;19908;-69
2021/09/27 04:35:13;;;;;;;;;;;16.80;99.90;;;;;;5064753;28;20026;-70
2021/09/27 04:37:39;;;;;;;;;;;16.90;99.90;;;;;;5058307;28;20277;-69
2021/09/27 04:40:08;;;;;;;;;;;16.80;99.90;;;;;;5060031;28;19912;-68
2021/09/27 04:42:39;;;;;;;;;;;16.80;99.90;;;;;;5045562;28;19944;-69
2021/09/27 04:45:10;;;;;;;;;;;16.80;99.90;;;;;;5054975;28;19913;-69
2021/09/27 04:47:42;;;;;;;;;;;16.80;99.90;;;;;;5072297;28;19916;-70
2021/09/27 04:50:13;;;;;;;;;;;16.80;99.90;;;;;;5060642;28;20000;-70
2021/09/27 04:52:54;;;;;;;;;;;16.80;99.90;;;;;;5063058;28;19916;-69
2021/09/27 04:55:23;;;;;;;;;;;16.80;99.90;;;;;;5049338;28;19916;-69
2021/09/27 04:58:11;;;;;;;;;;;16.70;99.90;;;;;;5048913;28;19999;-69
2021/09/27 05:00:37;;;;;;;;;;;16.80;99.90;;;;;;5048166;28;19989;-69
2021/09/27 05:03:08;;;;;;;;;;;16.70;99.90;;;;;;5059112;28;20302;-70
2021/09/27 05:05:37;;;;;;;;;;;16.70;99.90;;;;;;5062140;28;20333;-70
2021/09/27 05:08:17;;;;;;;;;;;16.70;99.90;;;;;;5059970;28;19965;-71
2021/09/27 05:10:58;;;;;;;;;;;16.70;99.90;;;;;;5035768;28;19920;-70
2021/09/27 05:13:42;;;;;;;;;;;16.60;99.90;;;;;;5057873;28;19919;-70
2021/09/27 05:16:08;;;;;;;;;;;16.60;99.90;;;;;;5077604;28;19916;-72
2021/09/27 05:18:36;;;;;;;;;;;16.60;99.90;;;;;;5039239;28;19912;-71
2021/09/27 05:21:21;;;;;;;;;;;16.60;99.90;;;;;;5078483;28;19921;-71
2021/09/27 05:23:53;;;;;;;;;;;16.60;99.90;;;;;;5065946;28;19920;-72
2021/09/27 05:26:31;;;;;;;;;;;16.60;99.90;;;;;;5064801;28;20262;-71
2021/09/27 05:29:17;;;;;;;;;;;16.60;99.90;;;;;;5065672;28;19966;-71
2021/09/27 05:32:03;;;;;;;;;;;16.60;99.90;;;;;;5069330;28;19915;-71
2021/09/27 05:34:36;;;;;;;;;;;16.60;99.90;;;;;;5043959;28;19908;-70
2021/09/27 05:37:12;;;;;;;;;;;16.60;99.90;;;;;;5048941;28;20030;-71
2021/09/27 05:39:56;;;;;;;;;;;16.60;99.90;;;;;;5068257;28;19908;-70
2021/09/27 05:42:30;;;;;;;;;;;16.60;99.90;;;;;;5050820;28;19924;-69
2021/09/27 05:45:04;;;;;;;;;;;16.60;99.90;;;;;;5066267;28;20364;-71
2021/09/27 05:47:40;;;;;;;;;;;16.70;99.90;;;;;;5065217;28;20357;-70
2021/09/27 05:50:10;;;;;;;;;;;16.60;99.90;;;;;;5066627;28;19917;-71
2021/09/27 05:52:45;;;;;;;;;;;16.70;99.90;;;;;;5061487;28;19915;-71
2021/09/27 05:55:13;;;;;;;;;;;16.70;99.90;;;;;;5067108;28;19919;-72
2021/09/27 05:57:39;;;;;;;;;;;16.70;99.90;;;;;;5070541;28;20349;-74
2021/09/27 06:00:07;;;;;;;;;;;16.80;99.90;;;;;;5083777;28;20011;-73
2021/09/27 06:02:33;;;;;;;;;;;16.80;99.90;;;;;;5085106;28;19914;-72
2021/09/27 06:05:16;;;;;;;;;;;16.70;99.90;;;;;;5072376;28;19989;-72
2021/09/27 06:07:45;;;;;;;;;;;16.70;99.90;;;;;;5050672;28;19916;-72
2021/09/27 06:10:18;;;;;;;;;;;16.80;99.90;;;;;;5071575;28;20452;-72
2021/09/27 06:12:46;;;;;;;;;;;16.80;99.90;;;;;;5051024;28;19990;-69
2021/09/27 06:15:14;;;;;;;;;;;16.80;99.90;;;;;;5069386;28;19916;-70
2021/09/27 06:17:59;;;;;;;;;;;16.90;99.90;;;;;;5050999;28;20277;-69
2021/09/27 06:20:39;;;;;;;;;;;16.90;99.90;;;;;;5070817;28;19912;-73
2021/09/27 06:23:14;;;;;;;;;;;16.90;99.90;;;;;;5070265;28;20654;-68
2021/09/27 06:25:48;;;;;;;;;;;16.90;99.90;;;;;;5064507;28;19912;-70
2021/09/27 06:28:13;;;;;;;;;;;17.00;99.90;;;;;;5061928;28;19978;-70
2021/09/27 06:31:05;;;;;;;;;;;17.00;99.90;;;;;;5060142;28;20370;-70
2021/09/27 06:33:35;;;;;;;;;;;17.00;99.90;;;;;;5060660;28;19912;-68
2021/09/27 06:36:05;;;;;;;;;;;17.10;99.90;;;;;;5062524;28;20572;-68
2021/09/27 06:38:32;;;;;;;;;;;17.10;99.90;;;;;;5060367;28;20027;-76
2021/09/27 06:40:58;;;;;;;;;;;17.20;99.90;;;;;;5063354;28;19916;-70
2021/09/27 06:43:24;;;;;;;;;;;17.20;99.90;;;;;;5044500;28;20368;-75
2021/09/27 06:45:51;;;;;;;;;;;17.20;99.90;;;;;;5062075;28;19916;-70
2021/09/27 06:48:16;;;;;;;;;;;17.20;99.90;;;;;;5045911;28;19919;-71
2021/09/27 06:50:42;;;;;;;;;;;17.20;99.90;;;;;;5045782;28;20304;-70
2021/09/27 06:53:08;;;;;;;;;;;17.30;99.90;;;;;;5060859;28;19973;-71
2021/09/27 06:55:33;;;;;;;;;;;17.30;99.90;;;;;;5045961;28;19916;-71
2021/09/27 06:57:59;;;;;;;;;;;17.30;99.90;;;;;;5064829;28;19921;-71
2021/09/27 07:00:24;;;;;;;;;;;17.30;99.90;;;;;;5063117;28;19908;-72
2021/09/27 07:02:50;;;;;;;;;;;17.30;99.90;;;;;;5060771;28;19951;-70
2021/09/27 07:05:15;;;;;;;;;;;17.40;99.90;;;;;;5065001;28;19916;-71
2021/09/27 07:07:41;;;;;;;;;;;17.40;99.90;;;;;;5058062;28;19923;-70
2021/09/27 07:10:08;;;;;;;;;;;17.40;99.90;;;;;;5063831;28;19912;-69
2021/09/27 07:12:34;;;;;;;;;;;17.40;99.90;;;;;;5060801;28;19919;-70
2021/09/27 07:14:59;;;;;;;;;;;17.40;99.90;;;;;;5039851;28;19913;-72
2021/09/27 07:17:25;;;;;;;;;;;17.40;99.90;;;;;;5062383;28;19919;-71
2021/09/27 07:19:50;;;;;;;;;;;17.40;99.90;;;;;;5042130;28;19919;-73
2021/09/27 07:22:16;;;;;;;;;;;17.40;99.90;;;;;;5064306;28;19919;-70
2021/09/27 07:24:41;;;;;;;;;;;17.50;99.90;;;;;;5066035;28;20355;-71
2021/09/27 07:27:07;;;;;;;;;;;17.50;99.90;;;;;;5068277;28;20341;-72
2021/09/27 07:29:33;;;;;;;;;;;17.60;99.90;;;;;;5067716;28;20003;-75
2021/09/27 07:31:58;;;;;;;;;;;17.60;99.90;;;;;;5070656;28;20003;-74
2021/09/27 07:34:24;;;;;;;;;;;17.70;99.90;;;;;;5049507;28;19919;-69
2021/09/27 07:36:50;;;;;;;26.10;17.00;;;17.70;99.90;;;;;;5065874;28;20184;-70
2021/09/27 07:39:18;;;;;;;24.95;16.60;;;17.70;99.90;;;;;;5048109;28;20217;-73
2021/09/27 07:41:43;;;;;;;25.45;16.88;;;17.80;99.90;;;;;;5072333;28;20191;-71
2021/09/27 07:44:09;;;;;;;26.48;16.20;;;17.80;99.90;;;;;;5072461;28;20194;-73
2021/09/27 07:46:35;;;;;;;30.50;16.55;;;17.90;99.90;;;;;;5070173;28;20189;-70
2021/09/27 07:49:00;;;;;;;25.75;16.25;;;17.90;99.90;;;;;;5067878;28;20182;-71
2021/09/27 07:51:27;;;;;;;33.85;16.73;;;18.00;99.90;;;;;;5049704;28;20197;-71
2021/09/27 07:53:53;;;;;;;24.05;16.92;;;18.00;99.90;;;;;;5068369;28;20187;-71
2021/09/27 07:56:19;;;;;;;24.58;16.20;;;18.00;99.90;;;;;;5068356;28;20206;-71
2021/09/27 07:58:44;;;;;;;24.88;16.35;;;18.00;99.90;;;;;;5074756;28;21087;-71
2021/09/27 08:01:10;;;;;;;25.75;16.02;;;17.90;99.90;;;;;;5068508;28;20186;-71
2021/09/27 08:03:36;;;;;;;26.10;17.10;;;17.90;99.90;;;;;;5031724;28;20243;-69
2021/09/27 08:06:02;;;;;;;29.05;16.83;;;17.90;99.90;;;;;;5048239;28;20198;-71
2021/09/27 08:08:28;;;;;;;25.55;17.25;;;17.90;99.90;;;;;;5066362;28;20186;-72
2021/09/27 08:10:53;;;;;;;27.25;17.80;;;17.90;99.90;;;;;;5059745;28;20190;-69
2021/09/27 08:13:20;;;;;;;28.50;17.33;;;17.90;99.90;;;;;;5052352;28;20685;-73
2021/09/27 08:15:50;;;;;;;30.38;18.42;;;17.90;99.90;;;;;;5067987;28;20194;-69
2021/09/27 08:18:16;;;;;;;26.63;19.55;;;17.90;99.90;;;;;;5066052;28;20220;-71
2021/09/27 08:20:56;;;;;;;33.88;18.83;;;17.90;99.90;;;;;;5047987;28;20212;-69
2021/09/27 08:23:22;;;;;;;35.92;21.05;;;17.90;99.90;;;;;;5064558;28;20230;-69
2021/09/27 08:25:49;;;;;;;29.23;20.55;;;17.90;99.90;;;;;;5066833;28;20182;-71
2021/09/27 08:28:17;;;;;;;36.30;20.50;;;17.90;99.90;;;;;;5073078;28;20179;-69
2021/09/27 08:30:47;;;;;;;32.25;20.63;;;18.00;99.90;;;;;;5046707;28;20201;-70
2021/09/27 08:33:13;;;;;;;33.55;20.80;;;18.00;99.90;;;;;;5066764;28;20191;-68
2021/09/27 08:35:39;;;;;;;33.55;21.83;;;18.00;99.90;;;;;;5063133;28;20193;-72
2021/09/27 08:38:08;;;;;;;32.47;21.10;;;18.00;99.90;;;;;;5063564;28;20240;-69
2021/09/27 08:40:47;;;;;;;34.95;22.45;;;18.00;99.90;;;;;;5063228;28;20760;-69
2021/09/27 08:43:54;;;;;;;30.73;22.80;;;18.00;99.90;;;;;;5062224;28;20193;-71
2021/09/27 08:46:48;;;;;;;32.67;23.20;;;18.10;99.90;;;;;;5037927;28;20199;-74
2021/09/27 08:49:22;;;;;;;33.80;20.10;;;18.10;99.90;;;;;;5061134;28;20281;-72
2021/09/27 08:51:49;;;;;;;33.72;22.73;;;18.10;99.90;;;;;;5063736;28;20621;-71
2021/09/27 08:54:22;;;;;;;33.95;22.83;;;18.10;99.90;;;;;;5066774;28;20243;-69
2021/09/27 08:57:10;;;;;;;31.60;22.90;;;18.10;99.90;;;;;;5064542;28;20195;-71
2021/09/27 08:59:42;;;;;;;;;;;18.20;99.90;;;;;;5068262;28;19942;-71
2021/09/27 09:02:29;;;;;;;29.80;22.27;;;18.30;99.90;;;;;;5063244;28;20542;-69
2021/09/27 09:05:05;;;;;;;31.10;22.73;;;18.50;99.90;;;;;;5065965;28;20186;-69
2021/09/27 09:07:33;;;;;;;30.20;22.63;;;18.60;99.90;;;;;;5061324;28;20198;-77
2021/09/27 09:10:04;;;;;;;;;;;18.70;99.90;;;;;;5063891;28;20586;-72
2021/09/27 09:12:45;;;;;;;;;;;18.90;99.90;;;;;;5068490;28;19916;-73
2021/09/27 09:15:19;;;;;;;;;;;19.00;99.90;;;;;;5056661;28;19912;-71
2021/09/27 09:17:44;;;;;;;;;;;19.10;99.90;;;;;;5066113;28;19916;-73
2021/09/27 09:20:14;;;;;;;;;;;19.10;99.90;;;;;;5067173;28;19912;-70
2021/09/27 09:22:41;;;;;;;;;;;19.10;99.90;;;;;;5070927;28;19923;-72
2021/09/27 09:25:11;;;;;;;;;;;19.10;99.90;;;;;;5064120;28;19916;-72
2021/09/27 09:27:36;;;;;;;;;;;19.10;99.90;;;;;;5046913;28;19916;-72
2021/09/27 09:30:03;;;;;;;;;;;19.10;99.90;;;;;;5063987;28;19924;-73
2021/09/27 09:32:31;;;;;;;;;;;19.10;99.90;;;;;;5041494;28;20049;-72
2021/09/27 09:35:32;;;;;;;;;;;19.10;99.90;;;;;;5059982;28;20000;-71
2021/09/27 09:38:00;;;;;;;;;;;19.10;99.90;;;;;;5025197;28;19917;-72
2021/09/27 09:40:31;;;;;;;;;;;19.10;99.90;;;;;;5056010;28;20373;-72
2021/09/27 09:42:59;;;;;;;;;;;19.10;99.90;;;;;;5064804;28;19974;-72
2021/09/27 09:45:27;;;;;;;;;;;19.10;99.90;;;;;;5065964;28;20003;-72
2021/09/27 09:47:53;;;;;;;;;;;19.10;99.90;;;;;;5063136;28;19916;-71
2021/09/27 09:50:28;;;;;;;;;;;19.20;99.90;;;;;;5066629;28;19954;-72
2021/09/27 09:52:56;;;;;;;;;;;19.30;99.90;;;;;;5045083;28;19931;-71
2021/09/27 09:55:42;;;;;;;20.50;14.90;;;19.40;99.90;;;;;;5065345;28;20200;-72
2021/09/27 09:58:29;;;;;;;;;;;19.50;99.90;;;;;;5060225;28;19917;-72
2021/09/27 10:00:59;;;;;;;18.80;13.52;;;19.60;99.90;;;;;;5059795;28;20445;-73
2021/09/27 10:03:34;;;;;;;22.88;13.23;;;19.70;99.90;;;;;;5064388;28;20187;-72
2021/09/27 10:06:29;;;;;;;20.52;13.18;;;19.80;99.90;;;;;;5046146;28;20264;-72
2021/09/27 10:08:59;;;;;;;18.63;12.52;;;19.90;99.90;;;;;;5039875;28;20185;-73
2021/09/27 10:11:35;;;;;;;21.00;12.55;;;19.80;99.90;;;;;;5047273;28;20532;-71
2021/09/27 10:14:15;;;;;;;;;;;19.80;99.90;;;;;;5047296;28;20182;-72
2021/09/27 10:16:45;;;;;;;;;;;19.80;99.90;;;;;;5061394;28;20331;-73
2021/09/27 10:19:17;;;;;;;;;;;19.70;99.90;;;;;;5064599;28;19999;-72
2021/09/27 10:21:50;;;;;;;;;;;19.80;99.90;;;;;;5062864;28;19949;-74
2021/09/27 10:24:20;;;;;;;;;;;19.70;99.90;;;;;;5053598;28;19961;-71
2021/09/27 10:26:48;;;;;;;;;;;19.70;99.90;;;;;;5070945;28;19948;-74
2021/09/27 10:29:15;;;;;;;;;;;19.70;99.90;;;;;;5072799;28;19948;-74
2021/09/27 10:31:42;;;;;;;;;;;19.70;99.90;;;;;;5075631;28;20417;-74
2021/09/27 10:34:18;;;;;;;;;;;19.70;99.90;;;;;;5076221;28;19948;-75
2021/09/27 10:36:46;;;;;;;;;;;19.80;99.90;;;;;;5065623;28;20898;-72
2021/09/27 10:39:13;;;;;;;;;;;19.80;99.90;;;;;;5099890;27;20031;-73
2021/09/27 10:41:40;;;;;;;;;;;19.80;99.90;;;;;;5071118;28;19912;-72
2021/09/27 10:44:08;;;;;;;;;;;19.90;99.90;;;;;;5105512;27;20340;-74
2021/09/27 10:46:38;;;;;;;;;;;19.90;99.90;;;;;;5071275;28;19957;-73
2021/09/27 10:49:05;;;;;;;;;;;20.00;99.90;;;;;;5070408;28;19908;-72
2021/09/27 10:51:38;;;;;;;;;;;20.00;99.90;;;;;;5069853;28;19912;-73
2021/09/27 10:54:13;;;;;;;;;;;20.10;99.90;;;;;;5070373;28;19954;-72
2021/09/27 10:56:48;;;;;;;17.77;9.18;;;20.20;99.90;;;;;;5066463;28;20219;-73
2021/09/27 10:59:30;;;;;;;13.23;8.93;;;20.30;99.90;;;;;;5069769;28;20202;-72
2021/09/27 11:02:02;;;;;;;14.90;8.20;;;20.50;99.90;;;;;;5069916;28;20182;-71
2021/09/27 11:04:34;;;;;;;17.83;7.65;;;20.80;99.90;;;;;;5067129;28;20266;-73
2021/09/27 11:07:20;;;;;;;12.95;7.93;;;21.30;99.90;;;;;;5070619;28;20250;-77
2021/09/27 11:09:46;;;;;;;14.20;7.80;;;21.70;99.90;;;;;;5064052;28;20411;-76
2021/09/27 11:12:29;;;;;;;;;;;23.20;95.50;;;;;;5046349;28;20039;-75
2021/09/27 11:15:01;;;;;;;;;;;23.30;96.20;;;;;;5067745;28;20327;-74
2021/09/27 11:17:29;;;;;;;;;;;23.50;96.10;;;;;;5067954;28;20543;-75
2021/09/27 11:20:16;;;;;;;;;;;23.80;95.60;;;;;;5072143;28;20001;-73
2021/09/27 11:22:44;;;;;;;;;;;24.10;94.90;;;;;;5066914;28;20451;-73
2021/09/27 11:25:21;;;;;;;14.93;5.10;;;24.40;94.00;;;;;;5069803;28;20005;-73
2021/09/27 11:28:05;;;;;;;10.25;4.68;;;24.30;92.50;;;;;;5068306;28;20277;-74
2021/09/27 11:31:07;;;;;;;9.82;4.82;;;24.10;91.80;;;;;;5048149;28;20202;-73
2021/09/27 11:33:32;;;;;;;11.57;4.25;;;24.00;91.70;;;;;;5072516;28;20674;-70
2021/09/27 11:36:24;;;;;;;12.38;4.30;;;23.90;91.80;;;;;;5048885;28;20274;-72
2021/09/27 11:39:05;;;;;;;14.50;4.53;;;23.70;90.60;;;;;;5065199;28;20800;-73
2021/09/27 11:41:35;;;;;;;9.73;4.30;;;23.50;90.90;;;;;;5083841;28;20308;-73
2021/09/27 11:44:26;;;;;;;8.40;3.90;;;23.30;91.10;;;;;;5071004;28;20196;-73
2021/09/27 11:47:15;;;;;;;11.05;3.92;;;23.20;91.40;;;;;;5066871;28;20294;-73
2021/09/27 11:53:02;;;;;;;7.18;3.50;;;23.10;91.70;;;;;;5052017;28;20565;-75
2021/09/27 11:55:37;;;;;;;10.48;3.63;;;23.00;91.10;;;;;;5050260;28;20558;-74
2021/09/27 11:58:10;;;;;;;9.70;3.47;;;22.90;91.00;;;;;;5046691;28;20222;-73
2021/09/27 12:00:43;;;;;;;11.20;3.30;;;22.70;91.00;;;;;;5067889;28;20632;-73
2021/09/27 12:03:30;;;;;;;5.18;3.30;;;22.60;91.20;;;;;;5047413;28;20898;-74
2021/09/27 12:06:09;;;;;;;5.65;3.00;;;23.00;89.50;;;;;;5067787;28;20186;-74
2021/09/27 12:08:42;;;;;;;7.47;3.10;;;22.70;90.50;;;;;;5065565;28;20193;-73
2021/09/27 12:11:09;;;;;;;;;;;22.40;91.20;;;;;;5052077;28;20185;-74
2021/09/27 12:13:34;;;;;;;;;;;22.20;91.70;;;;;;5067309;28;19977;-74
2021/09/27 12:16:01;;;;;;;;;;;21.90;92.40;;;;;;5048882;28;19923;-74
2021/09/27 12:18:36;;;;;;;;;;;21.70;93.00;;;;;;5049127;28;19916;-73
2021/09/27 12:21:07;;;;;;;;;;;21.40;93.80;;;;;;5067943;28;19912;-74
2021/09/27 12:23:45;;;;;;;6.50;3.65;;;21.20;94.30;;;;;;5063268;28;19967;-73
2021/09/27 12:26:24;;;;;;;10.65;3.65;;;21.00;94.80;;;;;;5048211;28;20202;-73
2021/09/27 12:29:00;;;;;;;7.75;4.25;;;20.90;95.30;;;;;;5081808;28;20178;-73
2021/09/27 12:31:26;;;;;;;8.93;4.30;;;20.80;95.70;;;;;;5065981;28;20537;-73
2021/09/27 12:33:51;;;;;;;9.88;4.85;;;20.70;96.30;;;;;;5065594;28;20190;-72
2021/09/27 12:36:21;;;;;;;7.50;4.63;;;20.50;97.10;;;;;;5046849;28;20197;-72
2021/09/27 12:38:48;;;;;;;;;;;20.40;97.20;;;;;;5069402;28;21068;-73
2021/09/27 12:41:14;;;;;;;;;;;20.30;97.90;;;;;;5064995;28;19912;-72
2021/09/27 12:43:40;;;;;;;;;;;20.10;98.20;;;;;;5074180;28;19916;-72
2021/09/27 12:46:28;;;;;;;11.10;5.63;;;20.00;98.60;;;;;;5043086;28;20184;-71
2021/09/27 12:49:01;;;;;;;;;;;19.80;99.30;;;;;;5086001;28;20036;-72
2021/09/27 12:51:46;;;;;;;;;;;19.70;99.70;;;;;;5070823;28;20610;-72
2021/09/27 12:54:21;;;;;;;;;;;19.40;99.90;;;;;;5070773;28;19920;-72
2021/09/27 12:56:47;;;;;;;;;;;19.20;99.90;;;;;;5071568;28;20388;-72
2021/09/27 12:59:14;;;;;;;;;;;19.00;99.90;;;;;;5086260;28;20458;-71
2021/09/27 13:01:42;;;;;;;;;;;18.90;99.90;;;;;;5070291;28;20374;-71
2021/09/27 13:04:08;;;;;;;;;;;18.80;99.90;;;;;;5070690;28;19958;-71
2021/09/27 13:06:35;;;;;;;;;;;18.70;99.90;;;;;;5070718;28;19908;-73
2021/09/27 13:09:04;;;;;;;;;;;18.60;99.90;;;;;;5068979;28;19912;-72
2021/09/27 13:11:35;;;;;;;;;;;18.60;99.90;;;;;;5069527;28;19916;-70
2021/09/27 13:14:21;;;;;;;;;;;18.50;99.90;;;;;;5072493;28;21202;-70
2021/09/27 13:17:06;;;;;;;;;;;18.40;99.90;;;;;;5071698;28;19991;-72
2021/09/27 13:19:34;;;;;;;;;;;18.40;99.90;;;;;;5071997;28;19916;-71
2021/09/27 13:22:00;;;;;;;;;;;18.30;99.90;;;;;;5049312;28;20007;-70
2021/09/27 13:24:28;;;;;;;;;;;18.20;99.90;;;;;;5066924;28;20003;-70
2021/09/27 13:27:04;;;;;;;;;;;18.20;99.90;;;;;;5059205;28;19947;-71
2021/09/27 13:29:34;;;;;;;;;;;18.10;99.90;;;;;;5065367;28;19912;-70
2021/09/27 13:32:17;;;;;;;;;;;18.10;99.90;;;;;;5062778;28;20436;-71
2021/09/27 13:34:47;;;;;;;;;;;18.10;99.90;;;;;;5065731;28;19916;-70
2021/09/27 13:37:24;;;;;;;;;;;18.10;99.90;;;;;;5064300;28;20351;-70
2021/09/27 13:39:51;;;;;;;;;;;18.10;99.90;;;;;;5057894;28;19944;-70
2021/09/27 13:42:35;;;;;;;;;;;18.20;99.90;;;;;;5066209;28;19948;-68
2021/09/27 13:45:00;;;;;;;;;;;18.20;99.90;;;;;;5062691;28;19995;-71
2021/09/27 13:47:27;;;;;;;;;;;18.10;99.90;;;;;;5065648;28;20062;-69
2021/09/27 13:49:54;;;;;;;;;;;18.20;99.90;;;;;;5062473;28;19916;-69
2021/09/27 13:52:24;;;;;;;;;;;18.20;99.90;;;;;;5063234;28;19913;-69
2021/09/27 13:54:50;;;;;;;;;;;18.20;99.90;;;;;;5046869;28;20425;-70
2021/09/27 13:57:15;;;;;;;;;;;18.10;99.90;;;;;;5062175;28;20011;-70
2021/09/27 13:59:44;;;;;;;;;;;18.10;99.90;;;;;;5064890;28;19912;-69
2021/09/27 14:02:10;;;;;;;;;;;18.10;99.90;;;;;;5064600;28;20003;-69
2021/09/27 14:04:35;;;;;;;;;;;18.00;99.90;;;;;;5046481;28;20011;-70
2021/09/27 14:07:01;;;;;;;;;;;18.00;99.90;;;;;;5061084;28;19920;-69
2021/09/27 14:09:26;;;;;;;;;;;18.00;99.90;;;;;;5060623;28;20000;-70
2021/09/27 14:11:52;;;;;;;;;;;17.90;99.90;;;;;;5061422;28;19917;-70
2021/09/27 14:14:18;;;;;;;;;;;17.90;99.90;;;;;;5047924;28;19912;-70
2021/09/27 14:16:44;;;;;;;;;;;17.90;99.90;;;;;;5064866;28;20349;-70